Time;durP1;ratioP1;P1;durP2;ratioP2;P2;SDS_P1;SDS_P2;PMS_P1;PMS_P2;Temp;Humidity;BMP_temperature;BMP_pressure;BME280_temperature;BME280_humidity;BME280_pressure;Samples;Min_cycle;Max_cycle;Signal;HPM_P1;HPM_P2
2022/07/05 00:00:45;;;;;;;3.88;2.10;;;24.30;76.50;;;;;;5093570;28;20508;-63
2022/07/05 00:03:11;;;;;;;3.45;1.95;;;24.40;76.60;;;;;;5074548;28;20048;-69
2022/07/05 00:05:37;;;;;;;5.47;2.20;;;24.40;77.00;;;;;;5068024;28;20051;-69
2022/07/05 00:08:03;;;;;;;3.33;1.90;;;24.30;72.70;;;;;;5091881;28;20043;-65
2022/07/05 00:10:29;;;;;;;3.63;2.17;;;24.30;73.20;;;;;;5110697;28;20400;-69
2022/07/05 00:12:55;;;;;;;3.55;2.10;;;24.40;76.80;;;;;;5061002;28;20119;-70
2022/07/05 00:15:21;;;;;;;4.45;2.20;;;24.30;76.60;;;;;;5079487;28;20151;-70
2022/07/05 00:17:48;;;;;;;3.58;1.92;;;24.10;73.50;;;;;;5091153;28;20580;-70
2022/07/05 00:20:13;;;;;;;3.60;1.83;;;24.40;76.80;;;;;;5095963;28;20134;-70
2022/07/05 00:22:40;;;;;;;4.55;1.95;;;24.30;76.40;;;;;;5109757;28;20083;-63
2022/07/05 00:25:06;;;;;;;3.22;1.75;;;24.40;76.50;;;;;;5090883;28;20510;-63
2022/07/05 00:27:32;;;;;;;3.70;1.90;;;24.50;73.10;;;;;;5081163;28;20075;-63
2022/07/05 00:29:57;;;;;;;4.65;2.20;;;24.30;73.20;;;;;;5091248;28;20410;-63
2022/07/05 00:32:23;;;;;;;4.20;2.20;;;24.50;73.60;;;;;;5068867;28;20042;-63
2022/07/05 00:34:49;;;;;;;6.90;1.95;;;24.20;73.50;;;;;;5081838;28;20448;-63
2022/07/05 00:37:14;;;;;;;4.78;2.20;;;24.40;73.60;;;;;;5067382;28;20086;-65
2022/07/05 00:39:40;;;;;;;3.80;1.90;;;24.20;76.40;;;;;;5092997;28;20056;-63
2022/07/05 00:42:06;;;;;;;3.67;1.92;;;24.30;76.40;;;;;;5090230;28;20047;-64
2022/07/05 00:44:34;;;;;;;4.20;2.10;;;24.20;73.10;;;;;;5073026;28;20040;-63
2022/07/05 00:47:02;;;;;;;4.97;1.90;;;24.40;76.70;;;;;;5088220;28;20079;-63
2022/07/05 00:49:28;;;;;;;4.15;2.10;;;24.50;76.70;;;;;;5091771;28;20036;-64
2022/07/05 00:51:54;;;;;;;5.07;2.38;;;24.40;76.90;;;;;;5092416;28;20043;-63
2022/07/05 00:54:20;;;;;;;3.65;1.67;;;24.10;73.30;;;;;;5070107;28;20187;-63
2022/07/05 00:56:45;;;;;;;4.07;1.98;;;24.10;76.40;;;;;;5080070;28;20053;-63
2022/07/05 00:59:11;;;;;;;4.90;2.00;;;24.40;76.70;;;;;;5060201;28;20162;-63
2022/07/05 01:01:37;;;;;;;4.10;2.03;;;24.10;73.50;;;;;;5091280;28;20058;-63
2022/07/05 01:04:03;;;;;;;4.70;2.03;;;24.00;73.30;;;;;;5093232;28;20408;-68
2022/07/05 01:06:28;;;;;;;3.83;1.88;;;24.50;73.40;;;;;;5088097;28;20036;-69
2022/07/05 01:08:54;;;;;;;3.50;2.05;;;24.30;73.40;;;;;;5071455;28;20053;-69
2022/07/05 01:11:20;;;;;;;3.55;1.80;;;24.40;76.40;;;;;;5083155;28;20488;-69
2022/07/05 01:13:46;;;;;;;3.85;1.80;;;24.20;76.40;;;;;;5092071;28;20048;-69
2022/07/05 01:16:12;;;;;;;6.18;2.10;;;24.00;73.40;;;;;;5088566;28;20040;-69
2022/07/05 01:18:38;;;;;;;3.58;1.80;;;;;;;;;;5056072;28;20052;-66
2022/07/05 01:21:04;;;;;;;3.80;2.00;;;24.20;71.60;;;;;;5081843;28;20048;-63
2022/07/05 01:23:31;;;;;;;3.05;1.77;;;24.40;76.50;;;;;;5074951;28;20052;-63
2022/07/05 01:25:57;;;;;;;3.15;1.80;;;24.50;73.90;;;;;;5092220;28;20043;-63
2022/07/05 01:28:23;;;;;;;4.25;1.88;;;24.30;73.70;;;;;;5085153;28;20119;-65
2022/07/05 01:30:48;;;;;;;5.20;2.05;;;24.00;76.20;;;;;;5091704;28;20124;-63
2022/07/05 01:33:14;;;;;;;4.28;2.20;;;24.20;76.40;;;;;;5091386;28;20378;-63
2022/07/05 01:35:40;;;;;;;11.00;2.60;;;24.20;73.30;;;;;;5090761;28;20032;-63
2022/07/05 01:38:06;;;;;;;4.78;1.83;;;;;;;;;;5056131;28;20131;-63
2022/07/05 01:40:32;;;;;;;3.22;1.70;;;24.40;71.50;;;;;;5076997;28;20500;-63
2022/07/05 01:42:58;;;;;;;4.45;1.83;;;24.20;73.30;;;;;;5075159;28;20052;-63
2022/07/05 01:45:42;;;;;;;4.07;1.98;;;24.20;76.30;;;;;;5089614;28;20131;-63
2022/07/05 01:48:09;;;;;;;5.40;2.40;;;24.20;76.20;;;;;;5073473;28;20083;-68
2022/07/05 01:50:38;;;;;;;2.17;1.40;;;24.00;73.50;;;;;;5088255;28;20462;-69
2022/07/05 01:53:04;;;;;;;4.38;1.90;;;24.20;76.50;;;;;;5047439;28;20178;-68
2022/07/05 01:55:30;;;;;;;3.30;1.80;;;24.20;73.20;;;;;;5057522;28;20131;-67
2022/07/05 01:57:56;;;;;;;7.15;1.92;;;;;;;;;;5076207;28;20448;-69
2022/07/05 02:00:22;;;;;;;3.33;1.70;;;24.00;76.20;;;;;;5087809;28;20048;-68
2022/07/05 02:02:47;;;;;;;2.97;1.90;;;24.20;76.20;;;;;;5091384;28;20051;-68
2022/07/05 02:05:13;;;;;;;4.25;1.77;;;23.90;75.90;;;;;;5089742;28;20102;-68
2022/07/05 02:07:48;;;;;;;2.75;1.63;;;24.10;76.20;;;;;;5072519;28;20044;-69
2022/07/05 02:10:14;;;;;;;4.05;1.70;;;23.90;76.20;;;;;;5086086;28;20044;-69
2022/07/05 02:12:40;;;;;;;4.57;2.00;;;24.00;73.10;;;;;;5079204;28;20105;-69
2022/07/05 02:15:06;;;;;;;4.35;1.70;;;23.90;76.10;;;;;;5075925;28;20040;-69
2022/07/05 02:17:32;;;;;;;3.95;1.70;;;;;;;;;;5094372;28;20048;-67
2022/07/05 02:19:58;;;;;;;3.08;1.63;;;24.10;76.10;;;;;;5095271;28;20413;-69
2022/07/05 02:22:24;;;;;;;4.72;1.70;;;24.10;73.00;;;;;;5096350;28;20047;-67
2022/07/05 02:24:50;;;;;;;2.42;1.60;;;;;;;;;;5089798;28;20048;-65
2022/07/05 02:27:16;;;;;;;5.20;2.03;;;24.00;76.40;;;;;;5087190;28;20051;-69
2022/07/05 02:29:41;;;;;;;4.20;1.50;;;24.00;73.10;;;;;;5096272;28;20500;-63
2022/07/05 02:32:07;;;;;;;3.25;1.50;;;24.00;76.10;;;;;;5095938;28;20135;-63
2022/07/05 02:34:33;;;;;;;2.60;1.42;;;23.90;73.00;;;;;;5080369;28;20131;-63
2022/07/05 02:36:59;;;;;;;2.95;1.67;;;24.00;76.40;;;;;;5082376;28;20040;-63
2022/07/05 02:39:24;;;;;;;2.47;1.50;;;24.00;73.00;;;;;;5095970;28;20394;-63
2022/07/05 02:41:50;;;;;;;5.13;1.85;;;23.90;76.40;;;;;;5077428;28;20045;-63
2022/07/05 02:44:16;;;;;;;3.38;1.70;;;24.00;73.10;;;;;;5075308;28;20545;-64
2022/07/05 02:46:41;;;;;;;4.15;1.80;;;24.10;73.20;;;;;;5088414;28;20048;-63
2022/07/05 02:49:07;;;;;;;3.80;1.67;;;23.90;72.70;;;;;;5094426;28;20074;-63
2022/07/05 02:51:33;;;;;;;3.10;1.67;;;23.90;76.00;;;;;;5084219;28;20047;-64
2022/07/05 02:53:59;;;;;;;3.70;1.60;;;24.00;73.00;;;;;;5094747;28;20148;-63
2022/07/05 02:56:24;;;;;;;3.17;1.70;;;23.90;76.00;;;;;;5080560;28;20071;-63
2022/07/05 02:58:50;;;;;;;3.90;1.60;;;24.00;76.00;;;;;;5077539;28;20044;-64
2022/07/05 03:01:16;;;;;;;4.97;1.80;;;;;;;;;;5082134;28;20067;-63
2022/07/05 03:03:42;;;;;;;2.97;1.58;;;23.90;71.10;;;;;;5075922;28;20393;-63
2022/07/05 03:06:08;;;;;;;3.35;1.65;;;24.00;76.10;;;;;;5074666;28;20045;-63
2022/07/05 03:08:33;;;;;;;3.20;1.55;;;23.80;75.90;;;;;;5083183;28;20400;-63
2022/07/05 03:10:59;;;;;;;5.93;1.80;;;;;;;;;;5089032;28;20123;-63
2022/07/05 03:13:25;;;;;;;3.85;1.70;;;24.10;76.20;;;;;;5076126;28;20131;-62
2022/07/05 03:15:51;;;;;;;8.82;1.85;;;24.10;76.00;;;;;;5068344;28;20087;-63
2022/07/05 03:18:16;;;;;;;4.15;1.65;;;23.90;75.90;;;;;;5077607;28;20571;-63
2022/07/05 03:20:42;;;;;;;3.45;1.60;;;;;;;;;;5094737;28;20052;-65
2022/07/05 03:23:08;;;;;;;3.65;1.88;;;23.90;71.10;;;;;;5095959;28;20081;-63
2022/07/05 03:25:34;;;;;;;3.28;1.58;;;24.00;73.00;;;;;;5091951;28;20140;-63
2022/07/05 03:28:00;;;;;;;3.28;1.70;;;23.90;73.00;;;;;;5076841;28;20413;-63
2022/07/05 03:30:25;;;;;;;3.47;1.70;;;23.90;75.90;;;;;;5090980;28;20189;-63
2022/07/05 03:32:51;;;;;;;4.13;1.95;;;23.60;72.80;;;;;;5075919;28;20047;-63
2022/07/05 03:35:17;;;;;;;3.58;1.60;;;23.90;75.90;;;;;;5063760;28;20047;-63
2022/07/05 03:37:42;;;;;;;3.63;1.58;;;23.90;76.10;;;;;;5090007;28;20460;-63
2022/07/05 03:40:08;;;;;;;3.47;1.50;;;24.00;71.80;;;;;;5080516;28;20401;-64
2022/07/05 03:42:35;;;;;;;3.75;1.65;;;;;;;;;;5093208;28;20116;-63
2022/07/05 03:45:01;;;;;;;3.35;1.50;;;23.90;75.80;;;;;;5090993;28;20040;-63
2022/07/05 03:47:27;;;;;;;3.05;1.45;;;23.70;75.80;;;;;;5094760;28;20103;-63
2022/07/05 03:49:54;;;;;;;4.78;1.65;;;23.70;75.80;;;;;;5065867;28;20127;-63
2022/07/05 03:52:19;;;;;;;3.22;2.00;;;23.80;75.90;;;;;;5055505;28;20045;-64
2022/07/05 03:54:45;;;;;;;4.25;1.65;;;23.90;75.70;;;;;;5087320;28;20051;-63
2022/07/05 03:57:12;;;;;;;3.80;1.60;;;23.80;72.70;;;;;;5085348;28;20056;-63
2022/07/05 03:59:38;;;;;;;4.13;1.92;;;23.80;75.60;;;;;;5082315;28;20044;-63
2022/07/05 04:02:04;;;;;;;3.38;1.50;;;23.90;75.80;;;;;;5082200;28;20454;-63
2022/07/05 04:04:30;;;;;;;2.50;1.58;;;23.90;72.50;;;;;;5076969;28;20483;-63
2022/07/05 04:06:55;;;;;;;5.20;1.70;;;23.90;72.70;;;;;;5089022;28;20131;-63
2022/07/05 04:09:21;;;;;;;3.08;1.60;;;24.00;75.60;;;;;;5091484;28;20478;-64
2022/07/05 04:11:47;;;;;;;3.80;1.83;;;24.00;75.60;;;;;;5089271;28;20124;-63
2022/07/05 04:14:12;;;;;;;4.50;1.60;;;23.80;72.10;;;;;;5092061;28;20047;-64
2022/07/05 04:16:38;;;;;;;2.50;1.38;;;24.00;75.60;;;;;;5089498;28;20048;-63
2022/07/05 04:19:04;;;;;;;3.20;1.80;;;24.30;72.70;;;;;;5073289;28;20048;-63
2022/07/05 04:21:30;;;;;;;4.82;1.88;;;24.10;75.50;;;;;;5085488;28;20571;-63
2022/07/05 04:23:55;;;;;;;3.28;1.50;;;24.10;72.30;;;;;;5093852;28;20488;-63
2022/07/05 04:26:21;;;;;;;7.20;1.65;;;24.00;75.40;;;;;;5081605;28;20041;-63
2022/07/05 04:28:47;;;;;;;5.40;1.73;;;24.10;72.40;;;;;;5088466;28;20044;-63
2022/07/05 04:31:12;;;;;;;4.35;1.60;;;24.10;75.50;;;;;;5093732;28;20117;-63
2022/07/05 04:33:39;;;;;;;4.07;1.42;;;24.00;72.20;;;;;;5090012;28;20047;-62
2022/07/05 04:36:05;;;;;;;3.20;1.60;;;24.00;75.80;;;;;;5094151;28;20040;-63
2022/07/05 04:38:31;;;;;;;4.13;1.65;;;24.20;72.20;;;;;;5075209;28;20047;-63
2022/07/05 04:40:57;;;;;;;4.07;1.80;;;24.10;72.30;;;;;;5087855;28;20116;-63
2022/07/05 04:43:22;;;;;;;3.63;1.95;;;24.20;75.30;;;;;;5091211;28;20540;-63
2022/07/05 04:45:48;;;;;;;3.55;1.60;;;23.80;72.10;;;;;;5090040;28;20040;-63
2022/07/05 04:48:14;;;;;;;4.10;1.75;;;24.10;75.50;;;;;;5083966;28;20037;-63
2022/07/05 04:50:39;;;;;;;4.40;1.80;;;24.10;72.40;;;;;;5078541;28;20048;-63
2022/07/05 04:53:05;;;;;;;4.75;1.75;;;;;;;;;;5076561;28;20457;-67
2022/07/05 04:55:31;;;;;;;4.10;2.03;;;24.20;76.00;;;;;;5085464;28;20048;-62
2022/07/05 04:57:57;;;;;;;4.45;1.58;;;24.10;73.70;;;;;;5072854;28;20078;-62
2022/07/05 05:00:22;;;;;;;4.00;1.40;;;24.40;75.40;;;;;;5089106;28;20048;-63
2022/07/05 05:02:48;;;;;;;4.13;1.60;;;24.60;72.60;;;;;;5072961;28;20437;-63
2022/07/05 05:05:14;;;;;;;2.28;1.25;;;24.80;72.30;;;;;;5082522;28;20044;-63
2022/07/05 05:07:43;;;;;;;2.63;1.40;;;24.60;71.90;;;;;;5087304;28;20040;-62
2022/07/05 05:10:09;;;;;;;3.25;1.60;;;24.90;72.00;;;;;;5060436;28;20393;-63
2022/07/05 05:12:35;;;;;;;4.10;1.70;;;25.10;71.30;;;;;;5085080;28;20040;-64
2022/07/05 05:15:01;;;;;;;4.03;1.67;;;25.30;71.00;;;;;;5082345;28;20082;-62
2022/07/05 05:17:35;;;;;;;5.00;1.80;;;25.70;71.00;;;;;;5093759;28;20143;-63
2022/07/05 05:20:01;;;;;;;3.92;1.90;;;26.00;71.20;;;;;;5080653;28;20466;-64
2022/07/05 05:22:27;;;;;;;4.68;1.85;;;25.80;70.10;;;;;;5087160;28;20086;-63
2022/07/05 05:24:53;;;;;;;4.22;2.17;;;26.00;69.90;;;;;;5085407;28;20962;-63
2022/07/05 05:27:18;;;;;;;3.22;1.60;;;26.00;70.00;;;;;;5085096;28;20076;-63
2022/07/05 05:29:44;;;;;;;4.13;1.70;;;26.20;69.70;;;;;;5079594;28;20047;-63
2022/07/05 05:32:10;;;;;;;4.22;1.73;;;26.40;69.80;;;;;;5079125;28;20402;-64
2022/07/05 05:34:35;;;;;;;3.15;1.52;;;26.30;69.40;;;;;;5071101;28;20072;-63
2022/07/05 05:37:01;;;;;;;2.80;1.50;;;26.60;69.60;;;;;;5078778;28;20044;-63
2022/07/05 05:39:27;;;;;;;4.57;1.42;;;26.90;68.80;;;;;;5093155;28;20127;-63
2022/07/05 05:41:53;;;;;;;3.33;1.83;;;26.80;69.30;;;;;;5087403;28;20178;-63
2022/07/05 05:44:18;;;;;;;3.08;1.45;;;27.00;68.90;;;;;;5077020;28;20047;-63
2022/07/05 05:46:44;;;;;;;4.38;1.60;;;27.00;69.00;;;;;;5084189;28;20056;-63
2022/07/05 05:49:10;;;;;;;2.47;1.38;;;27.20;68.90;;;;;;5081728;28;20127;-62
2022/07/05 05:51:36;;;;;;;4.25;1.65;;;27.10;68.90;;;;;;5070900;28;20383;-64
2022/07/05 05:54:01;;;;;;;4.57;1.40;;;27.00;68.50;;;;;;5080162;28;20094;-64
2022/07/05 05:56:27;;;;;;;2.97;1.50;;;27.20;68.60;;;;;;5073668;28;20055;-63
2022/07/05 05:58:53;;;;;;;4.38;1.60;;;27.40;68.60;;;;;;5084329;28;20045;-63
2022/07/05 06:01:18;;;;;;;5.80;1.60;;;27.20;68.40;;;;;;5078323;28;20119;-65
2022/07/05 06:03:44;;;;;;;3.70;1.50;;;27.50;68.40;;;;;;5083934;28;20040;-64
2022/07/05 06:06:10;;;;;;;3.38;1.30;;;27.50;68.20;;;;;;5090740;28;20040;-64
2022/07/05 06:08:36;;;;;;;3.05;1.38;;;27.20;68.50;;;;;;5079920;28;20374;-64
2022/07/05 06:11:04;;;;;;;3.45;1.50;;;27.30;68.50;;;;;;5091808;28;20047;-64
2022/07/05 06:13:29;;;;;;;3.35;1.40;;;27.20;68.70;;;;;;5092333;28;20074;-64
2022/07/05 06:15:55;;;;;;;2.40;1.42;;;27.30;68.50;;;;;;5091414;28;20040;-64
2022/07/05 06:18:22;;;;;;;3.65;1.45;;;27.30;68.60;;;;;;5091160;28;20044;-62
2022/07/05 06:20:49;;;;;;;2.88;1.40;;;27.20;68.50;;;;;;5032561;28;1510622;-64
2022/07/05 06:23:15;;;;;;;2.38;1.20;;;27.40;68.20;;;;;;5093551;28;20127;-64
2022/07/05 06:25:42;;;;;;;1.80;1.10;;;27.40;68.10;;;;;;5082261;28;20048;-64
2022/07/05 06:28:09;;;;;;;4.30;1.30;;;27.40;67.50;;;;;;5086420;28;20043;-63
2022/07/05 06:30:36;;;;;;;2.53;1.23;;;27.30;68.10;;;;;;5089715;28;20044;-64
2022/07/05 06:33:02;;;;;;;2.05;1.20;;;27.30;68.90;;;;;;5064828;28;20048;-65
2022/07/05 06:35:27;;;;;;;2.90;1.27;;;27.30;68.50;;;;;;5089060;28;20040;-63
2022/07/05 06:38:04;;;;;;;2.80;1.45;;;27.50;68.70;;;;;;5081128;28;20037;-62
2022/07/05 06:40:32;;;;;;;2.80;1.20;;;27.50;69.20;;;;;;5081377;28;20044;-64
2022/07/05 06:42:59;;;;;;;2.08;1.20;;;27.40;68.10;;;;;;5109017;28;20497;-63
2022/07/05 06:45:25;;;;;;;1.77;1.27;;;27.50;69.00;;;;;;5091704;28;20047;-62
2022/07/05 06:48:01;;;;;;;3.35;1.40;;;27.60;68.80;;;;;;5076146;28;20485;-64
2022/07/05 06:50:29;;;;;;;3.28;1.33;;;27.60;69.20;;;;;;5090243;28;20509;-63
2022/07/05 06:52:55;;;;;;;4.70;1.50;;;27.60;68.60;;;;;;5090758;28;20111;-63
2022/07/05 06:55:21;;;;;;;2.90;1.35;;;29.90;70.20;;;;;;5079171;28;20040;-68
2022/07/05 06:57:47;;;;;;;3.28;1.48;;;27.80;68.70;;;;;;5077504;28;20051;-65
2022/07/05 07:00:13;;;;;;;5.22;1.45;;;27.70;68.50;;;;;;5095823;28;20036;-65
2022/07/05 07:02:39;;;;;;;3.05;1.40;;;27.60;68.60;;;;;;5090282;28;20040;-63
2022/07/05 07:05:06;;;;;;;2.53;1.30;;;27.70;68.40;;;;;;5079252;28;20046;-68
2022/07/05 07:10:16;;;;;;;2.67;1.25;;;27.70;67.50;;;;;;5088820;28;20102;-63
2022/07/05 07:12:42;;;;;;;2.33;1.20;;;27.90;68.50;;;;;;5076307;28;20464;-66
2022/07/05 07:15:08;;;;;;;2.22;1.23;;;28.00;68.30;;;;;;5082457;28;20048;-63
2022/07/05 07:17:34;;;;;;;2.38;1.10;;;28.10;68.10;;;;;;5058712;28;20048;-67
2022/07/05 07:19:59;;;;;;;3.65;1.10;;;28.10;68.40;;;;;;5079248;28;20109;-66
2022/07/05 07:22:25;;;;;;;3.20;1.48;;;28.20;68.40;;;;;;5075775;28;20479;-67
2022/07/05 07:24:51;;;;;;;3.85;1.30;;;28.10;68.10;;;;;;5089751;28;20121;-67
2022/07/05 07:27:17;;;;;;;1.75;1.17;;;28.10;68.30;;;;;;5083591;28;20047;-63
2022/07/05 07:29:42;;;;;;;2.63;1.13;;;28.00;68.20;;;;;;5084209;28;20387;-63
2022/07/05 07:32:09;;;;;;;3.95;1.40;;;28.10;68.40;;;;;;5082683;28;20051;-64
2022/07/05 07:34:36;;;;;;;3.10;1.38;;;28.00;68.20;;;;;;5041650;28;20048;-67
2022/07/05 07:37:02;;;;;;;4.63;1.38;;;28.30;68.20;;;;;;5047682;28;20044;-64
2022/07/05 07:39:28;;;;;;;2.28;1.20;;;28.00;67.10;;;;;;5052546;28;20503;-63
2022/07/05 07:41:54;;;;;;;5.00;1.75;;;28.00;67.10;;;;;;5059969;28;20123;-63
2022/07/05 07:44:20;;;;;;;6.32;1.30;;;28.10;67.00;;;;;;5057670;28;20052;-63
2022/07/05 07:46:46;;;;;;;3.03;1.15;;;27.80;66.30;;;;;;5048886;28;20125;-63
2022/07/05 07:49:12;;;;;;;4.55;1.40;;;28.20;66.70;;;;;;5061733;28;20485;-63
2022/07/05 07:51:38;;;;;;;11.93;1.40;;;27.70;66.40;;;;;;5083482;28;20127;-66
2022/07/05 07:54:04;;;;;;;7.85;1.58;;;27.90;66.20;;;;;;5043734;28;20378;-63
2022/07/05 07:56:29;;;;;;;4.15;1.30;;;27.80;65.80;;;;;;5074523;28;20047;-63
2022/07/05 07:58:55;;;;;;;6.18;1.30;;;28.00;65.90;;;;;;5067892;28;20044;-63
2022/07/05 08:01:21;;;;;;;3.42;1.20;;;27.80;65.60;;;;;;5074632;28;20036;-62
2022/07/05 08:03:47;;;;;;;3.13;1.30;;;27.90;65.70;;;;;;5075466;28;20044;-62
2022/07/05 08:06:13;;;;;;;4.05;1.10;;;27.90;65.60;;;;;;5094460;28;20047;-62
2022/07/05 08:08:40;;;;;;;4.00;1.20;;;27.60;64.80;;;;;;5086190;28;20048;-62
2022/07/05 08:11:08;;;;;;;5.22;1.10;;;27.90;65.30;;;;;;5081041;28;20048;-63
2022/07/05 08:13:33;;;;;;;3.38;1.10;;;27.30;64.60;;;;;;5068897;28;20044;-64
2022/07/05 08:15:59;;;;;;;4.50;1.10;;;27.70;65.50;;;;;;5061506;28;20102;-63
2022/07/05 08:23:54;;;;;;;4.90;1.08;;;27.30;65.00;;;;;;5093917;28;20087;-63
2022/07/05 08:26:20;;;;;;;3.85;1.50;;;27.50;65.00;;;;;;5094076;28;20047;-63
2022/07/05 08:28:45;;;;;;;5.32;1.50;;;27.30;64.60;;;;;;5059229;28;20474;-62
2022/07/05 08:31:11;;;;;;;4.90;1.25;;;27.40;64.80;;;;;;5062426;28;20381;-63
2022/07/05 08:33:37;;;;;;;5.80;1.55;;;27.40;64.70;;;;;;5091330;28;20044;-65
2022/07/05 08:36:03;;;;;;;4.57;1.45;;;27.30;64.30;;;;;;5087958;28;20109;-66
2022/07/05 08:38:28;;;;;;;6.07;1.67;;;27.40;64.10;;;;;;5076544;28;20112;-68
2022/07/05 08:40:55;;;;;;;3.45;1.25;;;27.40;64.30;;;;;;5110559;28;20032;-66
2022/07/05 08:43:21;;;;;;;3.35;1.30;;;27.10;64.50;;;;;;5086440;28;20056;-69
2022/07/05 08:45:47;;;;;;;4.97;1.00;;;26.90;64.60;;;;;;5073972;28;20055;-64
2022/07/05 08:48:15;;;;;;;5.20;1.52;;;27.20;64.80;;;;;;5073404;28;20114;-66
2022/07/05 08:50:41;;;;;;;7.35;1.70;;;27.10;65.10;;;;;;5074603;28;20044;-63
2022/07/05 08:53:06;;;;;;;4.55;1.35;;;26.80;64.60;;;;;;5088480;28;20100;-67
2022/07/05 08:55:32;;;;;;;5.32;1.50;;;27.00;64.60;;;;;;5073516;28;20083;-69
2022/07/05 08:57:58;;;;;;;5.22;1.65;;;26.70;64.60;;;;;;5093062;28;20553;-69
2022/07/05 09:00:24;;;;;;;4.43;1.30;;;26.90;64.80;;;;;;5037312;28;20044;-69
2022/07/05 09:02:50;;;;;;;7.03;1.70;;;26.60;64.70;;;;;;5080603;28;20048;-69
2022/07/05 09:05:16;;;;;;;4.15;1.40;;;26.40;64.50;;;;;;5089854;28;20044;-69
2022/07/05 09:07:47;;;;;;;3.50;1.48;;;26.60;65.10;;;;;;5075050;28;20415;-69
2022/07/05 09:10:13;;;;;;;5.95;1.83;;;26.50;65.40;;;;;;5075022;28;20109;-68
2022/07/05 09:12:39;;;;;;;10.32;2.65;;;26.50;68.90;;;;;;5073514;28;20760;-69
2022/07/05 09:15:05;;;;;;;8.75;2.72;;;26.20;65.30;;;;;;5086818;28;20047;-68
2022/07/05 09:17:31;;;;;;;6.90;1.90;;;26.30;65.40;;;;;;5086052;28;20040;-68
2022/07/05 09:20:11;;;;;;;4.47;1.90;;;26.60;65.80;;;;;;5072564;28;20036;-71
2022/07/05 09:22:48;;;;;;;7.25;2.10;;;26.30;66.30;;;;;;5106719;28;20059;-69
2022/07/05 09:25:19;;;;;;;4.63;1.55;;;25.90;66.10;;;;;;5113448;28;20046;-67
2022/07/05 09:28:04;;;;;;;5.50;1.65;;;26.20;66.20;;;;;;5093262;28;20048;-65
2022/07/05 09:30:41;;;;;;;6.72;2.10;;;26.40;66.70;;;;;;5074661;28;20031;-68
2022/07/05 09:33:07;;;;;;;4.57;2.25;;;26.20;65.40;;;;;;5092920;28;20050;-68
2022/07/05 09:35:37;;;;;;;8.57;3.03;;;26.00;66.60;;;;;;5095709;28;20489;-69
2022/07/05 09:38:04;;;;;;;5.53;2.70;;;26.10;66.90;;;;;;5093718;28;20054;-70
2022/07/05 09:40:33;;;;;;;5.75;2.70;;;25.80;66.80;;;;;;5101112;28;20089;-68
2022/07/05 09:43:15;;;;;;;6.20;2.47;;;25.80;67.30;;;;;;5058051;28;20065;-68
2022/07/05 09:46:10;;;;;;;4.93;2.13;;;25.70;67.60;;;;;;5095742;28;20059;-69
2022/07/05 09:48:36;;;;;;;4.57;2.08;;;26.00;67.60;;;;;;5089305;28;20133;-62
2022/07/05 09:51:12;;;;;;;6.80;2.10;;;25.80;70.40;;;;;;5094020;28;20397;-62
2022/07/05 09:53:51;;;;;;;4.45;1.52;;;25.80;66.10;;;;;;5090878;28;20051;-62
2022/07/05 09:56:17;;;;;;;5.68;2.20;;;25.60;67.40;;;;;;5095665;28;20408;-62
2022/07/05 09:58:43;;;;;;;5.60;2.70;;;25.70;66.90;;;;;;5079795;28;20032;-62
2022/07/05 10:01:29;;;;;;;5.38;1.75;;;25.80;67.10;;;;;;5091688;28;20051;-70
2022/07/05 10:03:57;;;;;;;6.20;2.25;;;26.00;67.40;;;;;;5044940;28;20151;-62
2022/07/05 10:06:23;;;;;;;7.22;1.83;;;25.70;67.00;;;;;;5093321;28;20044;-68
2022/07/05 10:08:49;;;;;;;4.95;2.00;;;26.10;67.50;;;;;;5077518;28;20044;-62
2022/07/05 10:11:17;;;;;;;7.55;2.28;;;25.90;67.00;;;;;;5111224;28;20122;-68
2022/07/05 10:13:44;;;;;;;4.47;1.92;;;25.70;66.90;;;;;;5078195;28;20104;-66
2022/07/05 10:16:10;;;;;;;5.50;2.28;;;25.80;67.20;;;;;;5100697;28;20046;-63
2022/07/05 10:18:36;;;;;;;9.10;2.20;;;26.10;66.80;;;;;;5113697;28;20031;-63
2022/07/05 10:21:02;;;;;;;6.78;2.28;;;26.10;67.00;;;;;;5093619;28;20062;-70
2022/07/05 10:23:28;;;;;;;4.13;1.90;;;26.10;67.10;;;;;;5069385;28;20051;-69
2022/07/05 10:25:53;;;;;;;4.25;1.70;;;25.80;66.90;;;;;;5080493;28;20035;-69
2022/07/05 10:28:20;;;;;;;4.80;2.10;;;26.00;67.50;;;;;;5112904;28;20389;-69
2022/07/05 10:30:46;;;;;;;5.47;1.95;;;25.80;68.00;;;;;;5113265;28;20044;-68
2022/07/05 10:33:14;;;;;;;3.90;1.70;;;25.80;68.00;;;;;;5099179;28;20087;-64
2022/07/05 10:35:43;;;;;;;4.55;1.80;;;25.90;71.40;;;;;;5094994;28;20450;-62
2022/07/05 10:38:08;;;;;;;6.10;1.75;;;25.70;68.20;;;;;;5072588;28;20044;-62
2022/07/05 10:40:34;;;;;;;7.55;1.70;;;26.10;68.00;;;;;;5062139;28;20051;-62
2022/07/05 10:43:03;;;;;;;3.63;1.80;;;26.10;68.50;;;;;;5028832;28;20382;-64
2022/07/05 10:45:33;;;;;;;5.13;2.10;;;25.70;68.60;;;;;;5082292;28;20047;-63
2022/07/05 10:48:20;;;;;;;3.13;1.50;;;25.70;69.00;;;;;;5088483;28;20550;-62
2022/07/05 10:50:55;;;;;;;3.70;1.50;;;25.80;68.00;;;;;;5084522;28;20209;-62
2022/07/05 10:53:27;;;;;;;6.43;1.52;;;26.00;69.60;;;;;;5088541;28;20046;-64
2022/07/05 10:56:00;;;;;;;3.85;1.33;;;26.10;67.60;;;;;;5108810;28;20064;-62
2022/07/05 10:58:29;;;;;;;3.95;1.48;;;26.00;67.80;;;;;;5088949;28;20046;-64
2022/07/05 11:01:18;;;;;;;4.93;1.48;;;25.90;67.80;;;;;;5079651;28;20185;-69
2022/07/05 11:03:45;;;;;;;8.05;1.67;;;25.80;72.30;;;;;;5085261;28;20048;-66
2022/07/05 11:06:27;;;;;;;5.68;2.00;;;25.90;68.80;;;;;;5095005;28;20044;-68
2022/07/05 11:09:08;;;;;;;4.80;1.30;;;25.90;67.90;;;;;;5078763;28;20059;-69
2022/07/05 11:11:35;;;;;;;2.60;1.20;;;25.90;68.10;;;;;;5078294;28;20052;-65
2022/07/05 11:14:02;;;;;;;3.03;1.30;;;26.20;69.20;;;;;;5084599;28;20560;-63
2022/07/05 11:16:30;;;;;;;3.60;1.08;;;26.50;69.40;;;;;;5090304;28;20126;-70
2022/07/05 11:19:11;;;;;;;4.63;1.38;;;26.10;69.00;;;;;;5091971;28;20048;-64
2022/07/05 11:21:38;;;;;;;3.40;1.35;;;26.20;69.50;;;;;;5109708;28;20056;-65
2022/07/05 11:24:24;;;;;;;4.45;1.23;;;26.50;69.40;;;;;;5097136;28;20047;-64
2022/07/05 11:26:52;;;;;;;4.55;1.55;;;26.30;68.40;;;;;;5080158;28;20066;-64
2022/07/05 11:29:47;;;;;;;4.28;1.45;;;26.40;69.90;;;;;;5096120;28;21984;-62
2022/07/05 11:32:14;;;;;;;5.45;1.80;;;26.40;69.10;;;;;;5116285;28;20043;-62
2022/07/05 11:34:40;;;;;;;4.10;1.70;;;26.20;69.90;;;;;;5112297;28;20454;-62
2022/07/05 11:37:33;;;;;;;3.28;1.52;;;26.10;70.20;;;;;;5095981;28;20405;-62
2022/07/05 11:40:05;;;;;;;7.38;1.40;;;26.40;71.10;;;;;;5098098;28;20087;-70
2022/07/05 11:42:31;;;;;;;4.30;1.35;;;26.20;70.40;;;;;;5096639;28;20036;-66
2022/07/05 11:44:57;;;;;;;3.42;1.15;;;26.20;70.10;;;;;;5113910;28;20111;-69
2022/07/05 11:47:22;;;;;;;4.25;1.30;;;26.10;69.70;;;;;;5096116;28;20370;-69
2022/07/05 11:49:57;;;;;;;2.28;1.10;;;26.10;69.50;;;;;;5113393;28;20047;-68
2022/07/05 11:52:31;;;;;;;25.08;2.67;;;26.20;68.40;;;;;;5089988;28;20489;-64
2022/07/05 11:54:57;;;;;;;20.00;2.10;;;26.40;70.00;;;;;;5060826;28;20044;-64
2022/07/05 11:57:23;;;;;;;18.95;1.83;;;26.30;69.50;;;;;;5106823;28;20052;-63
2022/07/05 11:59:49;;;;;;;14.35;1.73;;;26.30;69.40;;;;;;5096112;28;20105;-64
2022/07/05 12:02:15;;;;;;;9.95;1.73;;;26.60;69.50;;;;;;5060729;28;20059;-64
2022/07/05 12:04:41;;;;;;;5.20;1.23;;;26.30;69.80;;;;;;5077261;28;20060;-65
2022/07/05 12:07:07;;;;;;;6.05;1.50;;;26.50;72.90;;;;;;5109017;28;20035;-65
2022/07/05 12:15:11;;;;;;;11.48;2.45;;;26.50;69.80;;;;;;5016615;28;20053;-64
2022/07/05 12:17:38;;;;;;;19.55;2.05;;;26.70;69.50;;;;;;4999283;28;20413;-63
2022/07/05 12:20:05;;;;;;;14.98;2.22;;;26.60;69.90;;;;;;5015642;28;20053;-63
2022/07/05 12:22:34;;;;;;;10.52;1.83;;;26.40;69.30;;;;;;5032997;28;20511;-63
2022/07/05 12:25:01;;;;;;;7.85;1.83;;;26.20;68.20;;;;;;5032769;28;20511;-64
2022/07/05 12:27:30;;;;;;;7.38;1.77;;;26.30;70.20;;;;;;4998836;28;20060;-63
2022/07/05 12:29:56;;;;;;;7.65;1.88;;;26.40;71.40;;;;;;5015859;28;20062;-64
2022/07/05 12:32:22;;;;;;;9.32;1.50;;;26.40;70.70;;;;;;5032562;28;20135;-62
2022/07/05 12:34:48;;;;;;;11.90;2.22;;;26.60;75.10;;;;;;5032098;28;20216;-62
2022/07/05 12:37:24;;;;;;;10.15;2.00;;;26.40;71.00;;;;;;5014295;28;20087;-66
2022/07/05 12:39:50;;;;;;;10.93;2.22;;;26.50;71.80;;;;;;5016007;28;20046;-62
2022/07/05 12:42:38;;;;;;;6.70;1.40;;;26.40;71.00;;;;;;4999383;28;20140;-62
2022/07/05 12:45:16;;;;;;;6.80;1.70;;;26.30;70.10;;;;;;5016069;28;20053;-62
2022/07/05 12:47:55;;;;;;;28.05;2.25;;;26.10;69.80;;;;;;5032264;28;20064;-62
2022/07/05 12:50:22;;;;;;;9.15;2.10;;;26.40;71.30;;;;;;5103547;28;20063;-62
2022/07/05 12:53:00;;;;;;;7.32;1.40;;;26.20;70.60;;;;;;5113606;28;20055;-63
2022/07/05 12:58:20;;;;;;;5.10;1.30;;;26.30;71.20;;;;;;5096682;28;20112;-63
2022/07/05 13:00:45;;;;;;;8.13;1.48;;;26.40;70.30;;;;;;5095049;28;20055;-64
2022/07/05 13:03:12;;;;;;;6.97;2.00;;;26.60;70.80;;;;;;5090356;28;20444;-63
2022/07/05 13:05:37;;;;;;;6.78;1.40;;;26.40;70.60;;;;;;5099809;28;20052;-65
2022/07/05 13:08:03;;;;;;;9.77;1.48;;;26.60;70.70;;;;;;5111030;28;20051;-65